sensor_id;sensor_type;location;lat;lon;timestamp;P1;durP1;ratioP1;P2;durP2;ratioP2
57730;SDS011;43570;47.476;19.040;2023-01-29T00:01:54;38.83;;;30.20;;
57730;SDS011;43570;47.476;19.040;2023-01-29T00:04:20;38.45;;;28.48;;
57730;SDS011;43570;47.476;19.040;2023-01-29T00:06:46;38.03;;;28.48;;
57730;SDS011;43570;47.476;19.040;2023-01-29T00:09:11;39.65;;;29.12;;
57730;SDS011;43570;47.476;19.040;2023-01-29T00:11:37;37.15;;;28.80;;
57730;SDS011;43570;47.476;19.040;2023-01-29T00:14:03;38.80;;;29.25;;
57730;SDS011;43570;47.476;19.040;2023-01-29T00:16:29;37.50;;;28.77;;
57730;SDS011;43570;47.476;19.040;2023-01-29T00:18:54;40.17;;;29.55;;
57730;SDS011;43570;47.476;19.040;2023-01-29T00:21:20;40.88;;;29.50;;
57730;SDS011;43570;47.476;19.040;2023-01-29T00:23:46;37.45;;;28.90;;
57730;SDS011;43570;47.476;19.040;2023-01-29T00:26:12;37.63;;;29.98;;
57730;SDS011;43570;47.476;19.040;2023-01-29T00:28:38;39.70;;;29.42;;
57730;SDS011;43570;47.476;19.040;2023-01-29T00:31:14;38.90;;;29.92;;
57730;SDS011;43570;47.476;19.040;2023-01-29T00:33:41;41.95;;;31.75;;
57730;SDS011;43570;47.476;19.040;2023-01-29T00:36:08;43.45;;;31.62;;
57730;SDS011;43570;47.476;19.040;2023-01-29T00:38:35;46.22;;;32.08;;
57730;SDS011;43570;47.476;19.040;2023-01-29T00:41:07;41.60;;;31.45;;
57730;SDS011;43570;47.476;19.040;2023-01-29T00:43:51;41.58;;;30.60;;
57730;SDS011;43570;47.476;19.040;2023-01-29T00:46:36;40.50;;;30.62;;
57730;SDS011;43570;47.476;19.040;2023-01-29T00:49:01;40.83;;;30.90;;
57730;SDS011;43570;47.476;19.040;2023-01-29T00:51:27;39.90;;;30.23;;
57730;SDS011;43570;47.476;19.040;2023-01-29T00:53:53;40.85;;;30.65;;
57730;SDS011;43570;47.476;19.040;2023-01-29T00:56:22;40.47;;;30.60;;
57730;SDS011;43570;47.476;19.040;2023-01-29T00:58:48;44.42;;;30.45;;
57730;SDS011;43570;47.476;19.040;2023-01-29T01:01:14;40.95;;;31.25;;
57730;SDS011;43570;47.476;19.040;2023-01-29T01:03:39;44.13;;;31.85;;
57730;SDS011;43570;47.476;19.040;2023-01-29T01:06:07;41.78;;;31.37;;
57730;SDS011;43570;47.476;19.040;2023-01-29T01:08:34;43.28;;;32.00;;
57730;SDS011;43570;47.476;19.040;2023-01-29T01:11:18;42.67;;;31.67;;
57730;SDS011;43570;47.476;19.040;2023-01-29T01:13:44;42.25;;;31.27;;
57730;SDS011;43570;47.476;19.040;2023-01-29T01:16:11;42.10;;;30.60;;
57730;SDS011;43570;47.476;19.040;2023-01-29T01:18:41;43.97;;;31.62;;
57730;SDS011;43570;47.476;19.040;2023-01-29T01:21:06;40.58;;;31.60;;
57730;SDS011;43570;47.476;19.040;2023-01-29T01:23:32;42.25;;;32.45;;
57730;SDS011;43570;47.476;19.040;2023-01-29T01:25:58;44.63;;;32.13;;
57730;SDS011;43570;47.476;19.040;2023-01-29T01:28:24;43.13;;;31.52;;
57730;SDS011;43570;47.476;19.040;2023-01-29T01:30:49;42.00;;;30.23;;
57730;SDS011;43570;47.476;19.040;2023-01-29T01:33:15;42.00;;;32.00;;
57730;SDS011;43570;47.476;19.040;2023-01-29T01:35:40;43.30;;;31.70;;
57730;SDS011;43570;47.476;19.040;2023-01-29T01:38:06;42.38;;;32.85;;
57730;SDS011;43570;47.476;19.040;2023-01-29T01:40:31;44.72;;;33.85;;
57730;SDS011;43570;47.476;19.040;2023-01-29T01:42:57;45.15;;;33.58;;
57730;SDS011;43570;47.476;19.040;2023-01-29T01:52:50;44.30;;;31.65;;
57730;SDS011;43570;47.476;19.040;2023-01-29T01:55:19;42.40;;;32.35;;
57730;SDS011;43570;47.476;19.040;2023-01-29T01:57:47;41.10;;;31.40;;
57730;SDS011;43570;47.476;19.040;2023-01-29T02:00:15;44.78;;;32.67;;
57730;SDS011;43570;47.476;19.040;2023-01-29T02:02:43;43.08;;;32.42;;
57730;SDS011;43570;47.476;19.040;2023-01-29T02:05:32;40.75;;;31.65;;
57730;SDS011;43570;47.476;19.040;2023-01-29T02:08:39;42.70;;;31.80;;
57730;SDS011;43570;47.476;19.040;2023-01-29T02:11:44;42.50;;;31.98;;
57730;SDS011;43570;47.476;19.040;2023-01-29T02:14:09;45.83;;;32.22;;
57730;SDS011;43570;47.476;19.040;2023-01-29T02:16:35;41.72;;;31.42;;
57730;SDS011;43570;47.476;19.040;2023-01-29T02:19:02;45.42;;;33.10;;
57730;SDS011;43570;47.476;19.040;2023-01-29T02:29:37;48.95;;;33.03;;
57730;SDS011;43570;47.476;19.040;2023-01-29T02:43:08;45.17;;;31.73;;
57730;SDS011;43570;47.476;19.040;2023-01-29T02:48:45;43.45;;;32.35;;
57730;SDS011;43570;47.476;19.040;2023-01-29T02:51:24;43.20;;;32.13;;
57730;SDS011;43570;47.476;19.040;2023-01-29T02:53:59;43.47;;;32.20;;
57730;SDS011;43570;47.476;19.040;2023-01-29T02:56:44;44.20;;;32.20;;
57730;SDS011;43570;47.476;19.040;2023-01-29T02:59:23;43.85;;;32.35;;
57730;SDS011;43570;47.476;19.040;2023-01-29T03:01:55;44.58;;;31.35;;
57730;SDS011;43570;47.476;19.040;2023-01-29T03:04:27;41.30;;;31.15;;
57730;SDS011;43570;47.476;19.040;2023-01-29T03:06:56;40.40;;;30.25;;
57730;SDS011;43570;47.476;19.040;2023-01-29T03:09:29;40.33;;;30.48;;
57730;SDS011;43570;47.476;19.040;2023-01-29T03:12:01;42.08;;;31.10;;
57730;SDS011;43570;47.476;19.040;2023-01-29T03:14:42;43.67;;;31.10;;
57730;SDS011;43570;47.476;19.040;2023-01-29T03:17:31;39.33;;;30.15;;
57730;SDS011;43570;47.476;19.040;2023-01-29T03:19:59;43.22;;;31.23;;
57730;SDS011;43570;47.476;19.040;2023-01-29T03:22:26;41.00;;;30.48;;
57730;SDS011;43570;47.476;19.040;2023-01-29T03:24:53;40.12;;;29.98;;
57730;SDS011;43570;47.476;19.040;2023-01-29T03:27:58;39.47;;;29.15;;
57730;SDS011;43570;47.476;19.040;2023-01-29T03:30:44;38.45;;;28.75;;
57730;SDS011;43570;47.476;19.040;2023-01-29T03:33:34;39.60;;;28.60;;
57730;SDS011;43570;47.476;19.040;2023-01-29T03:36:09;37.95;;;28.38;;
57730;SDS011;43570;47.476;19.040;2023-01-29T03:38:39;38.65;;;27.92;;
57730;SDS011;43570;47.476;19.040;2023-01-29T03:41:07;37.90;;;27.45;;
57730;SDS011;43570;47.476;19.040;2023-01-29T03:54:17;35.30;;;27.10;;
57730;SDS011;43570;47.476;19.040;2023-01-29T03:56:59;37.83;;;26.35;;
57730;SDS011;43570;47.476;19.040;2023-01-29T04:02:14;33.85;;;25.60;;
57730;SDS011;43570;47.476;19.040;2023-01-29T04:04:46;33.22;;;25.95;;
57730;SDS011;43570;47.476;19.040;2023-01-29T04:07:15;29.83;;;23.08;;
57730;SDS011;43570;47.476;19.040;2023-01-29T04:09:45;31.30;;;24.08;;
57730;SDS011;43570;47.476;19.040;2023-01-29T04:12:14;32.03;;;24.25;;
57730;SDS011;43570;47.476;19.040;2023-01-29T04:14:43;30.33;;;23.58;;
57730;SDS011;43570;47.476;19.040;2023-01-29T04:17:14;31.12;;;24.35;;
57730;SDS011;43570;47.476;19.040;2023-01-29T04:19:43;32.30;;;24.20;;
57730;SDS011;43570;47.476;19.040;2023-01-29T04:24:48;33.65;;;24.95;;
57730;SDS011;43570;47.476;19.040;2023-01-29T04:27:28;32.38;;;24.77;;
57730;SDS011;43570;47.476;19.040;2023-01-29T04:30:22;30.85;;;24.23;;
57730;SDS011;43570;47.476;19.040;2023-01-29T04:41:35;29.23;;;22.60;;
57730;SDS011;43570;47.476;19.040;2023-01-29T04:44:07;28.95;;;21.95;;
57730;SDS011;43570;47.476;19.040;2023-01-29T04:46:48;27.13;;;20.85;;
57730;SDS011;43570;47.476;19.040;2023-01-29T04:52:10;26.98;;;20.45;;
57730;SDS011;43570;47.476;19.040;2023-01-29T04:57:26;28.17;;;20.00;;
57730;SDS011;43570;47.476;19.040;2023-01-29T04:59:57;24.92;;;18.55;;
57730;SDS011;43570;47.476;19.040;2023-01-29T05:02:25;28.10;;;19.65;;
57730;SDS011;43570;47.476;19.040;2023-01-29T05:04:52;27.65;;;18.30;;
57730;SDS011;43570;47.476;19.040;2023-01-29T05:07:18;27.55;;;18.80;;
57730;SDS011;43570;47.476;19.040;2023-01-29T05:09:44;22.58;;;17.15;;
57730;SDS011;43570;47.476;19.040;2023-01-29T05:12:12;25.67;;;18.25;;
57730;SDS011;43570;47.476;19.040;2023-01-29T05:14:38;24.73;;;17.02;;
57730;SDS011;43570;47.476;19.040;2023-01-29T05:17:08;24.12;;;17.80;;
57730;SDS011;43570;47.476;19.040;2023-01-29T05:19:36;24.87;;;18.12;;
57730;SDS011;43570;47.476;19.040;2023-01-29T05:22:03;24.55;;;17.50;;
57730;SDS011;43570;47.476;19.040;2023-01-29T05:24:29;23.30;;;17.40;;
57730;SDS011;43570;47.476;19.040;2023-01-29T05:26:54;25.77;;;17.90;;
57730;SDS011;43570;47.476;19.040;2023-01-29T05:29:43;25.12;;;17.33;;
57730;SDS011;43570;47.476;19.040;2023-01-29T05:32:10;25.23;;;18.08;;
57730;SDS011;43570;47.476;19.040;2023-01-29T05:34:35;27.70;;;18.58;;
57730;SDS011;43570;47.476;19.040;2023-01-29T05:37:01;24.98;;;17.67;;
57730;SDS011;43570;47.476;19.040;2023-01-29T05:39:26;26.35;;;18.65;;
57730;SDS011;43570;47.476;19.040;2023-01-29T05:41:52;24.65;;;17.55;;
57730;SDS011;43570;47.476;19.040;2023-01-29T05:44:17;26.58;;;18.92;;
57730;SDS011;43570;47.476;19.040;2023-01-29T05:46:43;23.02;;;17.20;;
57730;SDS011;43570;47.476;19.040;2023-01-29T05:49:09;24.05;;;17.90;;
57730;SDS011;43570;47.476;19.040;2023-01-29T05:51:34;24.27;;;18.12;;
57730;SDS011;43570;47.476;19.040;2023-01-29T05:54:00;23.12;;;17.20;;
57730;SDS011;43570;47.476;19.040;2023-01-29T05:56:25;23.92;;;17.42;;
57730;SDS011;43570;47.476;19.040;2023-01-29T05:58:51;24.87;;;17.83;;
57730;SDS011;43570;47.476;19.040;2023-01-29T06:01:18;24.80;;;18.65;;
57730;SDS011;43570;47.476;19.040;2023-01-29T06:03:45;23.70;;;17.85;;
57730;SDS011;43570;47.476;19.040;2023-01-29T06:06:10;24.12;;;17.30;;
57730;SDS011;43570;47.476;19.040;2023-01-29T06:08:36;25.20;;;18.10;;
57730;SDS011;43570;47.476;19.040;2023-01-29T06:11:02;24.30;;;17.77;;
57730;SDS011;43570;47.476;19.040;2023-01-29T06:13:28;24.15;;;17.45;;
57730;SDS011;43570;47.476;19.040;2023-01-29T06:15:54;23.65;;;16.40;;
57730;SDS011;43570;47.476;19.040;2023-01-29T06:18:19;22.90;;;17.42;;
57730;SDS011;43570;47.476;19.040;2023-01-29T06:20:45;24.27;;;18.23;;
57730;SDS011;43570;47.476;19.040;2023-01-29T06:23:10;24.67;;;18.25;;
57730;SDS011;43570;47.476;19.040;2023-01-29T06:25:36;25.25;;;18.23;;
57730;SDS011;43570;47.476;19.040;2023-01-29T06:28:01;23.42;;;17.90;;
57730;SDS011;43570;47.476;19.040;2023-01-29T06:30:26;24.40;;;17.83;;
57730;SDS011;43570;47.476;19.040;2023-01-29T06:32:55;23.95;;;18.67;;
57730;SDS011;43570;47.476;19.040;2023-01-29T06:35:22;24.48;;;18.27;;
57730;SDS011;43570;47.476;19.040;2023-01-29T06:37:48;24.35;;;18.73;;
57730;SDS011;43570;47.476;19.040;2023-01-29T06:40:14;24.35;;;18.60;;
57730;SDS011;43570;47.476;19.040;2023-01-29T06:42:39;23.58;;;18.55;;
57730;SDS011;43570;47.476;19.040;2023-01-29T06:45:05;23.75;;;18.10;;
57730;SDS011;43570;47.476;19.040;2023-01-29T06:47:31;24.20;;;19.33;;
57730;SDS011;43570;47.476;19.040;2023-01-29T06:49:56;23.08;;;18.20;;
57730;SDS011;43570;47.476;19.040;2023-01-29T06:52:21;23.65;;;18.75;;
57730;SDS011;43570;47.476;19.040;2023-01-29T06:54:47;22.98;;;17.77;;
57730;SDS011;43570;47.476;19.040;2023-01-29T06:57:12;23.23;;;18.98;;
57730;SDS011;43570;47.476;19.040;2023-01-29T06:59:38;25.83;;;20.42;;
57730;SDS011;43570;47.476;19.040;2023-01-29T07:02:03;25.45;;;20.00;;
57730;SDS011;43570;47.476;19.040;2023-01-29T07:04:28;24.00;;;18.30;;
57730;SDS011;43570;47.476;19.040;2023-01-29T07:06:54;22.15;;;18.33;;
57730;SDS011;43570;47.476;19.040;2023-01-29T07:09:19;22.05;;;17.50;;
57730;SDS011;43570;47.476;19.040;2023-01-29T07:11:45;20.88;;;16.67;;
57730;SDS011;43570;47.476;19.040;2023-01-29T07:14:11;24.35;;;18.42;;
57730;SDS011;43570;47.476;19.040;2023-01-29T07:16:37;21.62;;;17.62;;
57730;SDS011;43570;47.476;19.040;2023-01-29T07:19:02;22.08;;;17.45;;
57730;SDS011;43570;47.476;19.040;2023-01-29T07:21:28;23.95;;;18.35;;
57730;SDS011;43570;47.476;19.040;2023-01-29T07:23:53;21.83;;;16.85;;
57730;SDS011;43570;47.476;19.040;2023-01-29T07:26:19;20.37;;;16.77;;
57730;SDS011;43570;47.476;19.040;2023-01-29T07:28:44;20.50;;;16.85;;
57730;SDS011;43570;47.476;19.040;2023-01-29T07:31:10;22.40;;;16.92;;
57730;SDS011;43570;47.476;19.040;2023-01-29T07:33:36;21.67;;;16.45;;
57730;SDS011;43570;47.476;19.040;2023-01-29T07:36:05;21.80;;;17.15;;
57730;SDS011;43570;47.476;19.040;2023-01-29T07:38:31;20.75;;;16.35;;
57730;SDS011;43570;47.476;19.040;2023-01-29T07:40:58;23.12;;;17.17;;
57730;SDS011;43570;47.476;19.040;2023-01-29T07:43:24;23.52;;;19.05;;
57730;SDS011;43570;47.476;19.040;2023-01-29T07:45:49;21.12;;;17.00;;
57730;SDS011;43570;47.476;19.040;2023-01-29T07:48:15;22.02;;;17.12;;
57730;SDS011;43570;47.476;19.040;2023-01-29T07:50:40;21.25;;;16.87;;
57730;SDS011;43570;47.476;19.040;2023-01-29T07:53:10;19.95;;;15.20;;
57730;SDS011;43570;47.476;19.040;2023-01-29T07:55:39;21.48;;;16.20;;
57730;SDS011;43570;47.476;19.040;2023-01-29T07:58:07;21.45;;;15.63;;
57730;SDS011;43570;47.476;19.040;2023-01-29T08:00:33;20.00;;;15.88;;
57730;SDS011;43570;47.476;19.040;2023-01-29T08:03:05;20.77;;;16.33;;
57730;SDS011;43570;47.476;19.040;2023-01-29T08:05:33;20.35;;;16.70;;
57730;SDS011;43570;47.476;19.040;2023-01-29T08:07:58;18.23;;;14.55;;
57730;SDS011;43570;47.476;19.040;2023-01-29T08:10:24;19.00;;;14.32;;
57730;SDS011;43570;47.476;19.040;2023-01-29T08:12:53;18.35;;;15.13;;
57730;SDS011;43570;47.476;19.040;2023-01-29T08:15:20;19.62;;;16.02;;
57730;SDS011;43570;47.476;19.040;2023-01-29T08:17:45;19.08;;;15.13;;
57730;SDS011;43570;47.476;19.040;2023-01-29T08:20:10;20.05;;;15.13;;
57730;SDS011;43570;47.476;19.040;2023-01-29T08:22:36;18.77;;;15.07;;
57730;SDS011;43570;47.476;19.040;2023-01-29T08:25:01;23.77;;;18.98;;
57730;SDS011;43570;47.476;19.040;2023-01-29T08:27:27;18.75;;;14.75;;
57730;SDS011;43570;47.476;19.040;2023-01-29T08:29:52;20.37;;;14.77;;
57730;SDS011;43570;47.476;19.040;2023-01-29T08:32:18;18.12;;;14.80;;
57730;SDS011;43570;47.476;19.040;2023-01-29T08:34:43;18.48;;;13.98;;
57730;SDS011;43570;47.476;19.040;2023-01-29T08:37:08;18.37;;;13.68;;
57730;SDS011;43570;47.476;19.040;2023-01-29T08:39:34;21.00;;;14.93;;
57730;SDS011;43570;47.476;19.040;2023-01-29T08:41:59;17.37;;;13.65;;
57730;SDS011;43570;47.476;19.040;2023-01-29T08:44:24;18.90;;;13.95;;
57730;SDS011;43570;47.476;19.040;2023-01-29T08:46:50;21.87;;;14.05;;
57730;SDS011;43570;47.476;19.040;2023-01-29T08:49:15;17.92;;;13.73;;
57730;SDS011;43570;47.476;19.040;2023-01-29T08:51:41;16.45;;;13.55;;
57730;SDS011;43570;47.476;19.040;2023-01-29T08:54:06;17.65;;;13.90;;
57730;SDS011;43570;47.476;19.040;2023-01-29T08:56:32;18.62;;;14.23;;
57730;SDS011;43570;47.476;19.040;2023-01-29T08:58:57;17.95;;;13.60;;
57730;SDS011;43570;47.476;19.040;2023-01-29T09:01:22;17.45;;;13.15;;
57730;SDS011;43570;47.476;19.040;2023-01-29T09:03:48;17.17;;;13.05;;
57730;SDS011;43570;47.476;19.040;2023-01-29T09:06:14;17.60;;;13.02;;
57730;SDS011;43570;47.476;19.040;2023-01-29T09:08:39;15.82;;;12.43;;
57730;SDS011;43570;47.476;19.040;2023-01-29T09:11:05;16.20;;;12.50;;
57730;SDS011;43570;47.476;19.040;2023-01-29T09:13:31;16.33;;;12.63;;
57730;SDS011;43570;47.476;19.040;2023-01-29T09:16:00;16.92;;;13.23;;
57730;SDS011;43570;47.476;19.040;2023-01-29T09:18:26;17.87;;;13.62;;
57730;SDS011;43570;47.476;19.040;2023-01-29T09:20:53;16.75;;;12.90;;
57730;SDS011;43570;47.476;19.040;2023-01-29T09:23:18;15.25;;;11.73;;
57730;SDS011;43570;47.476;19.040;2023-01-29T09:25:44;16.73;;;11.95;;
57730;SDS011;43570;47.476;19.040;2023-01-29T09:28:09;15.77;;;11.55;;
57730;SDS011;43570;47.476;19.040;2023-01-29T09:30:35;18.40;;;11.55;;
57730;SDS011;43570;47.476;19.040;2023-01-29T09:33:05;14.48;;;11.73;;
57730;SDS011;43570;47.476;19.040;2023-01-29T09:35:31;16.98;;;12.68;;
57730;SDS011;43570;47.476;19.040;2023-01-29T09:37:56;16.02;;;11.98;;
57730;SDS011;43570;47.476;19.040;2023-01-29T09:45:36;15.18;;;11.63;;
57730;SDS011;43570;47.476;19.040;2023-01-29T09:48:03;16.40;;;12.65;;
57730;SDS011;43570;47.476;19.040;2023-01-29T09:50:34;15.55;;;11.77;;
57730;SDS011;43570;47.476;19.040;2023-01-29T09:53:19;17.37;;;11.82;;
57730;SDS011;43570;47.476;19.040;2023-01-29T09:56:02;15.25;;;11.02;;
57730;SDS011;43570;47.476;19.040;2023-01-29T10:22:58;13.80;;;10.27;;
57730;SDS011;43570;47.476;19.040;2023-01-29T10:25:24;13.93;;;10.90;;
57730;SDS011;43570;47.476;19.040;2023-01-29T10:27:50;14.27;;;10.93;;
57730;SDS011;43570;47.476;19.040;2023-01-29T10:32:42;13.02;;;9.07;;
57730;SDS011;43570;47.476;19.040;2023-01-29T10:35:26;13.40;;;9.40;;
57730;SDS011;43570;47.476;19.040;2023-01-29T10:37:54;15.13;;;10.05;;
57730;SDS011;43570;47.476;19.040;2023-01-29T10:40:21;13.10;;;10.65;;
57730;SDS011;43570;47.476;19.040;2023-01-29T10:43:01;13.00;;;9.68;;
57730;SDS011;43570;47.476;19.040;2023-01-29T10:46:05;13.15;;;9.80;;
57730;SDS011;43570;47.476;19.040;2023-01-29T10:59:08;12.93;;;9.98;;
57730;SDS011;43570;47.476;19.040;2023-01-29T11:04:11;14.13;;;10.50;;
57730;SDS011;43570;47.476;19.040;2023-01-29T11:06:37;14.18;;;10.85;;
57730;SDS011;43570;47.476;19.040;2023-01-29T11:12:11;12.73;;;10.38;;
57730;SDS011;43570;47.476;19.040;2023-01-29T11:14:43;13.95;;;10.35;;
57730;SDS011;43570;47.476;19.040;2023-01-29T11:17:17;15.40;;;10.90;;
57730;SDS011;43570;47.476;19.040;2023-01-29T11:19:45;14.13;;;10.55;;
57730;SDS011;43570;47.476;19.040;2023-01-29T11:22:15;13.68;;;10.60;;
57730;SDS011;43570;47.476;19.040;2023-01-29T11:24:42;14.15;;;10.43;;
57730;SDS011;43570;47.476;19.040;2023-01-29T11:27:15;14.77;;;10.43;;
57730;SDS011;43570;47.476;19.040;2023-01-29T11:29:47;12.90;;;10.15;;
57730;SDS011;43570;47.476;19.040;2023-01-29T11:32:34;13.73;;;10.65;;
57730;SDS011;43570;47.476;19.040;2023-01-29T11:34:59;14.90;;;10.55;;
57730;SDS011;43570;47.476;19.040;2023-01-29T11:37:33;13.68;;;10.13;;
57730;SDS011;43570;47.476;19.040;2023-01-29T11:40:27;13.73;;;10.15;;
57730;SDS011;43570;47.476;19.040;2023-01-29T11:42:58;12.10;;;9.52;;
57730;SDS011;43570;47.476;19.040;2023-01-29T11:45:37;12.27;;;9.93;;
57730;SDS011;43570;47.476;19.040;2023-01-29T11:48:04;12.95;;;9.48;;
57730;SDS011;43570;47.476;19.040;2023-01-29T11:50:30;13.80;;;10.65;;
57730;SDS011;43570;47.476;19.040;2023-01-29T11:52:57;13.82;;;9.90;;
57730;SDS011;43570;47.476;19.040;2023-01-29T11:55:27;13.00;;;10.07;;
57730;SDS011;43570;47.476;19.040;2023-01-29T11:58:11;13.68;;;10.32;;
57730;SDS011;43570;47.476;19.040;2023-01-29T12:00:40;15.52;;;12.37;;
57730;SDS011;43570;47.476;19.040;2023-01-29T12:03:23;12.70;;;10.87;;
57730;SDS011;43570;47.476;19.040;2023-01-29T12:06:22;12.25;;;8.98;;
57730;SDS011;43570;47.476;19.040;2023-01-29T12:08:55;11.65;;;9.60;;
57730;SDS011;43570;47.476;19.040;2023-01-29T12:11:30;13.35;;;11.32;;
57730;SDS011;43570;47.476;19.040;2023-01-29T12:14:00;12.98;;;9.93;;
57730;SDS011;43570;47.476;19.040;2023-01-29T12:19:40;13.07;;;9.85;;
57730;SDS011;43570;47.476;19.040;2023-01-29T12:22:12;12.37;;;9.48;;
57730;SDS011;43570;47.476;19.040;2023-01-29T12:24:49;12.07;;;9.57;;
57730;SDS011;43570;47.476;19.040;2023-01-29T12:27:28;13.30;;;9.45;;
57730;SDS011;43570;47.476;19.040;2023-01-29T12:30:01;11.68;;;8.60;;
57730;SDS011;43570;47.476;19.040;2023-01-29T12:37:53;10.65;;;7.82;;
57730;SDS011;43570;47.476;19.040;2023-01-29T12:40:25;9.93;;;7.35;;
57730;SDS011;43570;47.476;19.040;2023-01-29T12:42:55;9.80;;;8.15;;
57730;SDS011;43570;47.476;19.040;2023-01-29T12:45:24;8.73;;;7.12;;
57730;SDS011;43570;47.476;19.040;2023-01-29T12:47:52;12.30;;;7.90;;
57730;SDS011;43570;47.476;19.040;2023-01-29T12:50:31;8.68;;;7.22;;
57730;SDS011;43570;47.476;19.040;2023-01-29T12:53:11;9.77;;;7.20;;
57730;SDS011;43570;47.476;19.040;2023-01-29T12:56:01;10.55;;;7.80;;
57730;SDS011;43570;47.476;19.040;2023-01-29T12:58:37;9.65;;;7.50;;
57730;SDS011;43570;47.476;19.040;2023-01-29T13:03:53;9.63;;;7.25;;
57730;SDS011;43570;47.476;19.040;2023-01-29T13:06:22;9.00;;;7.15;;
57730;SDS011;43570;47.476;19.040;2023-01-29T13:08:57;9.05;;;7.20;;
57730;SDS011;43570;47.476;19.040;2023-01-29T13:18:58;9.65;;;7.80;;
57730;SDS011;43570;47.476;19.040;2023-01-29T13:21:30;9.20;;;7.28;;
57730;SDS011;43570;47.476;19.040;2023-01-29T13:24:01;10.82;;;8.02;;
57730;SDS011;43570;47.476;19.040;2023-01-29T13:26:28;9.00;;;7.50;;
57730;SDS011;43570;47.476;19.040;2023-01-29T13:28:54;9.95;;;7.78;;
57730;SDS011;43570;47.476;19.040;2023-01-29T13:31:22;9.88;;;7.90;;
57730;SDS011;43570;47.476;19.040;2023-01-29T13:34:13;9.43;;;7.43;;
57730;SDS011;43570;47.476;19.040;2023-01-29T13:36:44;9.75;;;7.93;;
57730;SDS011;43570;47.476;19.040;2023-01-29T13:39:19;9.63;;;7.95;;
57730;SDS011;43570;47.476;19.040;2023-01-29T13:42:02;9.63;;;8.07;;
57730;SDS011;43570;47.476;19.040;2023-01-29T13:44:37;9.55;;;8.18;;
57730;SDS011;43570;47.476;19.040;2023-01-29T13:47:07;9.65;;;7.97;;
57730;SDS011;43570;47.476;19.040;2023-01-29T13:49:38;9.68;;;7.95;;
57730;SDS011;43570;47.476;19.040;2023-01-29T13:54:51;11.52;;;7.93;;
57730;SDS011;43570;47.476;19.040;2023-01-29T14:08:01;9.45;;;7.87;;
57730;SDS011;43570;47.476;19.040;2023-01-29T14:10:30;11.10;;;9.15;;
57730;SDS011;43570;47.476;19.040;2023-01-29T14:15:29;12.00;;;9.38;;
57730;SDS011;43570;47.476;19.040;2023-01-29T14:20:29;11.88;;;9.52;;
57730;SDS011;43570;47.476;19.040;2023-01-29T14:25:48;10.07;;;8.65;;
57730;SDS011;43570;47.476;19.040;2023-01-29T14:28:15;11.40;;;8.98;;
57730;SDS011;43570;47.476;19.040;2023-01-29T14:30:48;11.30;;;9.50;;
57730;SDS011;43570;47.476;19.040;2023-01-29T14:35:56;11.70;;;8.77;;
57730;SDS011;43570;47.476;19.040;2023-01-29T14:38:22;10.27;;;9.13;;
57730;SDS011;43570;47.476;19.040;2023-01-29T14:40:50;13.02;;;9.55;;
57730;SDS011;43570;47.476;19.040;2023-01-29T14:43:27;13.43;;;9.70;;
57730;SDS011;43570;47.476;19.040;2023-01-29T14:45:52;10.70;;;8.82;;
57730;SDS011;43570;47.476;19.040;2023-01-29T14:48:37;13.10;;;10.05;;
57730;SDS011;43570;47.476;19.040;2023-01-29T14:51:11;11.32;;;9.85;;
57730;SDS011;43570;47.476;19.040;2023-01-29T14:53:47;13.10;;;10.32;;
57730;SDS011;43570;47.476;19.040;2023-01-29T14:56:23;11.07;;;9.32;;
57730;SDS011;43570;47.476;19.040;2023-01-29T14:58:53;14.40;;;10.75;;
57730;SDS011;43570;47.476;19.040;2023-01-29T15:03:48;11.98;;;10.50;;
57730;SDS011;43570;47.476;19.040;2023-01-29T15:06:26;13.13;;;10.48;;
57730;SDS011;43570;47.476;19.040;2023-01-29T15:09:02;13.73;;;10.75;;
57730;SDS011;43570;47.476;19.040;2023-01-29T15:11:46;13.07;;;10.80;;
57730;SDS011;43570;47.476;19.040;2023-01-29T15:14:17;13.55;;;11.00;;
57730;SDS011;43570;47.476;19.040;2023-01-29T15:16:50;12.40;;;10.15;;
57730;SDS011;43570;47.476;19.040;2023-01-29T15:19:36;14.48;;;11.63;;
57730;SDS011;43570;47.476;19.040;2023-01-29T15:22:12;15.07;;;11.27;;
57730;SDS011;43570;47.476;19.040;2023-01-29T15:24:40;14.15;;;11.60;;
57730;SDS011;43570;47.476;19.040;2023-01-29T15:27:08;14.82;;;12.75;;
57730;SDS011;43570;47.476;19.040;2023-01-29T15:29:37;13.48;;;11.68;;
57730;SDS011;43570;47.476;19.040;2023-01-29T15:32:03;13.65;;;11.32;;
57730;SDS011;43570;47.476;19.040;2023-01-29T15:34:29;16.02;;;12.27;;
57730;SDS011;43570;47.476;19.040;2023-01-29T15:36:54;14.07;;;12.15;;
57730;SDS011;43570;47.476;19.040;2023-01-29T15:39:20;14.43;;;12.57;;
57730;SDS011;43570;47.476;19.040;2023-01-29T15:41:47;13.95;;;11.35;;
57730;SDS011;43570;47.476;19.040;2023-01-29T15:44:15;16.05;;;12.32;;
57730;SDS011;43570;47.476;19.040;2023-01-29T15:46:49;14.13;;;12.57;;
57730;SDS011;43570;47.476;19.040;2023-01-29T15:49:28;15.65;;;13.02;;
57730;SDS011;43570;47.476;19.040;2023-01-29T15:51:56;15.27;;;13.25;;
57730;SDS011;43570;47.476;19.040;2023-01-29T15:54:23;15.23;;;13.05;;
57730;SDS011;43570;47.476;19.040;2023-01-29T15:56:50;17.17;;;13.40;;
57730;SDS011;43570;47.476;19.040;2023-01-29T15:59:17;17.67;;;14.18;;
57730;SDS011;43570;47.476;19.040;2023-01-29T16:01:44;16.70;;;14.00;;
57730;SDS011;43570;47.476;19.040;2023-01-29T16:04:11;15.75;;;13.80;;
57730;SDS011;43570;47.476;19.040;2023-01-29T16:06:40;17.08;;;14.05;;
57730;SDS011;43570;47.476;19.040;2023-01-29T16:09:06;17.25;;;14.13;;
57730;SDS011;43570;47.476;19.040;2023-01-29T16:11:35;16.42;;;14.32;;
57730;SDS011;43570;47.476;19.040;2023-01-29T16:14:00;16.80;;;14.80;;
57730;SDS011;43570;47.476;19.040;2023-01-29T16:16:27;17.10;;;13.73;;
57730;SDS011;43570;47.476;19.040;2023-01-29T16:18:53;15.80;;;13.75;;
57730;SDS011;43570;47.476;19.040;2023-01-29T16:21:24;16.70;;;14.43;;
57730;SDS011;43570;47.476;19.040;2023-01-29T16:24:01;17.58;;;14.38;;
57730;SDS011;43570;47.476;19.040;2023-01-29T16:26:34;15.60;;;13.90;;
57730;SDS011;43570;47.476;19.040;2023-01-29T16:29:08;16.70;;;14.90;;
57730;SDS011;43570;47.476;19.040;2023-01-29T16:31:38;16.40;;;14.60;;
57730;SDS011;43570;47.476;19.040;2023-01-29T16:34:07;16.27;;;13.48;;
57730;SDS011;43570;47.476;19.040;2023-01-29T16:36:35;16.70;;;14.10;;
57730;SDS011;43570;47.476;19.040;2023-01-29T16:39:01;16.42;;;14.65;;
57730;SDS011;43570;47.476;19.040;2023-01-29T16:41:30;16.87;;;14.90;;
57730;SDS011;43570;47.476;19.040;2023-01-29T16:43:59;16.33;;;14.63;;
57730;SDS011;43570;47.476;19.040;2023-01-29T16:46:46;16.60;;;14.80;;
57730;SDS011;43570;47.476;19.040;2023-01-29T16:51:50;17.73;;;15.70;;
57730;SDS011;43570;47.476;19.040;2023-01-29T16:54:16;17.73;;;15.77;;
57730;SDS011;43570;47.476;19.040;2023-01-29T16:56:43;17.30;;;15.10;;
57730;SDS011;43570;47.476;19.040;2023-01-29T16:59:11;18.05;;;15.75;;
57730;SDS011;43570;47.476;19.040;2023-01-29T17:01:45;19.62;;;17.35;;
57730;SDS011;43570;47.476;19.040;2023-01-29T17:04:14;18.10;;;15.98;;